sensor_id;sensor_type;location;lat;lon;timestamp;P1;durP1;ratioP1;P2;durP2;ratioP2
13083;SDS011;6608;48.790;9.198;2023-12-07T00:00:09;101.60;;;53.37;;
13083;SDS011;6608;48.790;9.198;2023-12-07T00:02:37;99.67;;;53.10;;
13083;SDS011;6608;48.790;9.198;2023-12-07T00:05:04;103.93;;;53.70;;
13083;SDS011;6608;48.790;9.198;2023-12-07T00:07:30;103.00;;;53.17;;
13083;SDS011;6608;48.790;9.198;2023-12-07T00:09:57;101.83;;;53.33;;
13083;SDS011;6608;48.790;9.198;2023-12-07T00:12:23;103.00;;;53.67;;
13083;SDS011;6608;48.790;9.198;2023-12-07T00:14:49;108.67;;;54.43;;
13083;SDS011;6608;48.790;9.198;2023-12-07T00:17:16;101.33;;;53.57;;
13083;SDS011;6608;48.790;9.198;2023-12-07T00:19:44;101.53;;;53.47;;
13083;SDS011;6608;48.790;9.198;2023-12-07T00:22:10;104.60;;;54.03;;
13083;SDS011;6608;48.790;9.198;2023-12-07T00:24:36;100.57;;;53.03;;
13083;SDS011;6608;48.790;9.198;2023-12-07T00:27:03;102.27;;;52.93;;
13083;SDS011;6608;48.790;9.198;2023-12-07T00:29:30;106.30;;;53.97;;
13083;SDS011;6608;48.790;9.198;2023-12-07T00:31:56;102.17;;;53.20;;
13083;SDS011;6608;48.790;9.198;2023-12-07T00:34:23;105.23;;;53.80;;
13083;SDS011;6608;48.790;9.198;2023-12-07T00:36:51;102.67;;;53.13;;
13083;SDS011;6608;48.790;9.198;2023-12-07T00:39:17;106.33;;;54.50;;
13083;SDS011;6608;48.790;9.198;2023-12-07T00:41:43;106.93;;;54.80;;
13083;SDS011;6608;48.790;9.198;2023-12-07T00:44:11;105.87;;;53.47;;
13083;SDS011;6608;48.790;9.198;2023-12-07T00:46:38;99.50;;;52.73;;
13083;SDS011;6608;48.790;9.198;2023-12-07T00:49:04;102.47;;;53.53;;
13083;SDS011;6608;48.790;9.198;2023-12-07T00:51:31;103.93;;;53.67;;
13083;SDS011;6608;48.790;9.198;2023-12-07T00:53:59;103.20;;;53.80;;
13083;SDS011;6608;48.790;9.198;2023-12-07T00:56:25;100.30;;;53.13;;
13083;SDS011;6608;48.790;9.198;2023-12-07T00:58:52;102.87;;;53.00;;
13083;SDS011;6608;48.790;9.198;2023-12-07T01:01:18;99.37;;;52.67;;
13083;SDS011;6608;48.790;9.198;2023-12-07T01:03:44;102.17;;;52.67;;
13083;SDS011;6608;48.790;9.198;2023-12-07T01:06:11;101.73;;;52.50;;
13083;SDS011;6608;48.790;9.198;2023-12-07T01:08:37;99.53;;;52.63;;
13083;SDS011;6608;48.790;9.198;2023-12-07T01:11:05;101.03;;;52.90;;
13083;SDS011;6608;48.790;9.198;2023-12-07T01:13:32;106.03;;;54.30;;
13083;SDS011;6608;48.790;9.198;2023-12-07T01:15:58;100.77;;;52.73;;
13083;SDS011;6608;48.790;9.198;2023-12-07T01:18:24;106.80;;;53.47;;
13083;SDS011;6608;48.790;9.198;2023-12-07T01:20:51;100.27;;;53.03;;
13083;SDS011;6608;48.790;9.198;2023-12-07T01:23:18;100.23;;;52.97;;
13083;SDS011;6608;48.790;9.198;2023-12-07T01:25:44;100.13;;;52.80;;
13083;SDS011;6608;48.790;9.198;2023-12-07T01:28:12;103.00;;;53.37;;
13083;SDS011;6608;48.790;9.198;2023-12-07T01:30:39;101.20;;;53.23;;
13083;SDS011;6608;48.790;9.198;2023-12-07T01:33:05;102.27;;;53.20;;
13083;SDS011;6608;48.790;9.198;2023-12-07T01:35:31;102.30;;;53.40;;
13083;SDS011;6608;48.790;9.198;2023-12-07T01:38:01;103.57;;;53.27;;
13083;SDS011;6608;48.790;9.198;2023-12-07T01:40:27;100.63;;;52.67;;
13083;SDS011;6608;48.790;9.198;2023-12-07T01:42:54;104.13;;;53.83;;
13083;SDS011;6608;48.790;9.198;2023-12-07T01:45:21;107.67;;;54.23;;
13083;SDS011;6608;48.790;9.198;2023-12-07T01:47:49;111.03;;;55.07;;
13083;SDS011;6608;48.790;9.198;2023-12-07T01:50:15;102.03;;;53.67;;
13083;SDS011;6608;48.790;9.198;2023-12-07T01:52:43;104.37;;;53.87;;
13083;SDS011;6608;48.790;9.198;2023-12-07T01:55:10;98.70;;;52.27;;
13083;SDS011;6608;48.790;9.198;2023-12-07T01:57:37;103.70;;;53.20;;
13083;SDS011;6608;48.790;9.198;2023-12-07T02:00:04;100.77;;;52.43;;
13083;SDS011;6608;48.790;9.198;2023-12-07T02:02:32;102.47;;;52.73;;
13083;SDS011;6608;48.790;9.198;2023-12-07T02:04:59;107.20;;;54.23;;
13083;SDS011;6608;48.790;9.198;2023-12-07T02:07:26;99.47;;;52.50;;
13083;SDS011;6608;48.790;9.198;2023-12-07T02:09:52;102.77;;;53.50;;
13083;SDS011;6608;48.790;9.198;2023-12-07T02:12:19;100.17;;;52.77;;
13083;SDS011;6608;48.790;9.198;2023-12-07T02:14:45;105.80;;;54.00;;
13083;SDS011;6608;48.790;9.198;2023-12-07T02:17:14;97.93;;;52.27;;
13083;SDS011;6608;48.790;9.198;2023-12-07T02:19:54;102.10;;;53.00;;
13083;SDS011;6608;48.790;9.198;2023-12-07T02:22:22;97.60;;;52.07;;
13083;SDS011;6608;48.790;9.198;2023-12-07T02:24:55;104.87;;;54.23;;
13083;SDS011;6608;48.790;9.198;2023-12-07T02:27:37;102.73;;;53.43;;
13083;SDS011;6608;48.790;9.198;2023-12-07T02:30:04;104.53;;;53.63;;
13083;SDS011;6608;48.790;9.198;2023-12-07T02:32:31;103.47;;;53.00;;
13083;SDS011;6608;48.790;9.198;2023-12-07T02:34:57;103.43;;;53.77;;
13083;SDS011;6608;48.790;9.198;2023-12-07T02:37:25;104.47;;;53.00;;
13083;SDS011;6608;48.790;9.198;2023-12-07T02:39:53;105.47;;;54.00;;
13083;SDS011;6608;48.790;9.198;2023-12-07T02:42:21;98.60;;;52.10;;
13083;SDS011;6608;48.790;9.198;2023-12-07T02:44:51;105.20;;;53.60;;
13083;SDS011;6608;48.790;9.198;2023-12-07T02:47:18;103.73;;;52.97;;
13083;SDS011;6608;48.790;9.198;2023-12-07T02:49:44;107.07;;;54.27;;
13083;SDS011;6608;48.790;9.198;2023-12-07T02:52:11;104.47;;;53.77;;
13083;SDS011;6608;48.790;9.198;2023-12-07T02:54:37;106.27;;;53.43;;
13083;SDS011;6608;48.790;9.198;2023-12-07T02:57:04;112.07;;;54.00;;
13083;SDS011;6608;48.790;9.198;2023-12-07T02:59:30;104.93;;;53.47;;
13083;SDS011;6608;48.790;9.198;2023-12-07T03:01:58;104.90;;;53.93;;
13083;SDS011;6608;48.790;9.198;2023-12-07T03:04:24;99.10;;;52.90;;
13083;SDS011;6608;48.790;9.198;2023-12-07T03:06:51;106.73;;;54.53;;
13083;SDS011;6608;48.790;9.198;2023-12-07T03:09:17;101.10;;;53.20;;
13083;SDS011;6608;48.790;9.198;2023-12-07T03:11:43;99.47;;;52.50;;
13083;SDS011;6608;48.790;9.198;2023-12-07T03:14:10;102.03;;;53.10;;
13083;SDS011;6608;48.790;9.198;2023-12-07T03:16:36;100.50;;;52.83;;
13083;SDS011;6608;48.790;9.198;2023-12-07T03:19:04;106.27;;;54.47;;
13083;SDS011;6608;48.790;9.198;2023-12-07T03:21:31;98.80;;;52.70;;
13083;SDS011;6608;48.790;9.198;2023-12-07T03:23:57;107.77;;;54.63;;
13083;SDS011;6608;48.790;9.198;2023-12-07T03:26:23;101.73;;;52.73;;
13083;SDS011;6608;48.790;9.198;2023-12-07T03:28:50;111.27;;;54.50;;
13083;SDS011;6608;48.790;9.198;2023-12-07T03:31:17;102.77;;;53.13;;
13083;SDS011;6608;48.790;9.198;2023-12-07T03:33:43;107.07;;;54.13;;
13083;SDS011;6608;48.790;9.198;2023-12-07T03:36:12;104.70;;;53.33;;
13083;SDS011;6608;48.790;9.198;2023-12-07T03:38:38;104.97;;;53.87;;
13083;SDS011;6608;48.790;9.198;2023-12-07T03:41:04;102.63;;;53.83;;
13083;SDS011;6608;48.790;9.198;2023-12-07T03:43:31;103.90;;;53.63;;
13083;SDS011;6608;48.790;9.198;2023-12-07T03:45:57;106.13;;;53.57;;
13083;SDS011;6608;48.790;9.198;2023-12-07T03:48:24;102.03;;;52.80;;
13083;SDS011;6608;48.790;9.198;2023-12-07T03:50:49;107.30;;;54.30;;
13083;SDS011;6608;48.790;9.198;2023-12-07T03:53:17;101.13;;;53.17;;
13083;SDS011;6608;48.790;9.198;2023-12-07T03:55:44;101.03;;;53.10;;
13083;SDS011;6608;48.790;9.198;2023-12-07T03:58:10;112.37;;;54.70;;
13083;SDS011;6608;48.790;9.198;2023-12-07T04:00:38;102.67;;;53.13;;
13083;SDS011;6608;48.790;9.198;2023-12-07T04:03:05;110.07;;;54.87;;
13083;SDS011;6608;48.790;9.198;2023-12-07T04:05:33;99.87;;;52.67;;
13083;SDS011;6608;48.790;9.198;2023-12-07T04:08:00;99.33;;;52.57;;
13083;SDS011;6608;48.790;9.198;2023-12-07T04:10:27;106.40;;;54.13;;
13083;SDS011;6608;48.790;9.198;2023-12-07T04:13:12;108.30;;;53.93;;
13083;SDS011;6608;48.790;9.198;2023-12-07T04:15:38;105.67;;;53.33;;
13083;SDS011;6608;48.790;9.198;2023-12-07T04:18:05;108.77;;;53.93;;
13083;SDS011;6608;48.790;9.198;2023-12-07T04:20:31;100.23;;;52.50;;
13083;SDS011;6608;48.790;9.198;2023-12-07T04:22:57;109.27;;;54.53;;
13083;SDS011;6608;48.790;9.198;2023-12-07T04:25:24;103.83;;;52.20;;
13083;SDS011;6608;48.790;9.198;2023-12-07T04:27:52;104.07;;;53.27;;
13083;SDS011;6608;48.790;9.198;2023-12-07T04:30:18;105.67;;;53.50;;
13083;SDS011;6608;48.790;9.198;2023-12-07T04:32:44;101.43;;;52.53;;
13083;SDS011;6608;48.790;9.198;2023-12-07T04:35:11;101.17;;;53.10;;
13083;SDS011;6608;48.790;9.198;2023-12-07T04:37:37;103.63;;;53.57;;
13083;SDS011;6608;48.790;9.198;2023-12-07T04:40:04;107.33;;;54.13;;
13083;SDS011;6608;48.790;9.198;2023-12-07T04:42:31;99.50;;;52.70;;
13083;SDS011;6608;48.790;9.198;2023-12-07T04:44:59;105.00;;;54.07;;
13083;SDS011;6608;48.790;9.198;2023-12-07T04:47:25;101.77;;;53.17;;
13083;SDS011;6608;48.790;9.198;2023-12-07T04:49:52;101.23;;;52.57;;
13083;SDS011;6608;48.790;9.198;2023-12-07T04:52:18;106.67;;;54.27;;
13083;SDS011;6608;48.790;9.198;2023-12-07T04:54:45;99.80;;;52.30;;
13083;SDS011;6608;48.790;9.198;2023-12-07T04:57:11;98.13;;;52.13;;
13083;SDS011;6608;48.790;9.198;2023-12-07T04:59:38;103.97;;;53.63;;
13083;SDS011;6608;48.790;9.198;2023-12-07T05:02:06;101.50;;;52.93;;
13083;SDS011;6608;48.790;9.198;2023-12-07T05:04:32;102.70;;;52.97;;
13083;SDS011;6608;48.790;9.198;2023-12-07T05:06:59;104.93;;;53.53;;
13083;SDS011;6608;48.790;9.198;2023-12-07T05:09:27;97.63;;;52.00;;
13083;SDS011;6608;48.790;9.198;2023-12-07T05:11:56;99.07;;;52.17;;
13083;SDS011;6608;48.790;9.198;2023-12-07T05:14:23;99.30;;;52.57;;
13083;SDS011;6608;48.790;9.198;2023-12-07T05:16:49;98.30;;;52.23;;
13083;SDS011;6608;48.790;9.198;2023-12-07T05:19:19;105.70;;;52.90;;
13083;SDS011;6608;48.790;9.198;2023-12-07T05:21:45;101.70;;;52.93;;
13083;SDS011;6608;48.790;9.198;2023-12-07T05:24:12;103.73;;;53.43;;
13083;SDS011;6608;48.790;9.198;2023-12-07T05:26:40;101.67;;;53.00;;
13083;SDS011;6608;48.790;9.198;2023-12-07T05:29:06;102.03;;;52.67;;
13083;SDS011;6608;48.790;9.198;2023-12-07T05:31:33;102.20;;;52.87;;
13083;SDS011;6608;48.790;9.198;2023-12-07T05:34:00;107.77;;;54.10;;
13083;SDS011;6608;48.790;9.198;2023-12-07T05:36:28;99.63;;;52.20;;
13083;SDS011;6608;48.790;9.198;2023-12-07T05:38:54;106.63;;;54.10;;
13083;SDS011;6608;48.790;9.198;2023-12-07T05:41:21;101.93;;;53.03;;
13083;SDS011;6608;48.790;9.198;2023-12-07T05:43:47;98.20;;;52.17;;
13083;SDS011;6608;48.790;9.198;2023-12-07T05:46:14;105.53;;;53.13;;
13083;SDS011;6608;48.790;9.198;2023-12-07T05:48:40;103.27;;;53.20;;
13083;SDS011;6608;48.790;9.198;2023-12-07T05:51:11;103.43;;;53.67;;
13083;SDS011;6608;48.790;9.198;2023-12-07T05:53:39;102.97;;;53.23;;
13083;SDS011;6608;48.790;9.198;2023-12-07T05:56:05;110.87;;;54.63;;
13083;SDS011;6608;48.790;9.198;2023-12-07T05:58:32;111.93;;;54.53;;
13083;SDS011;6608;48.790;9.198;2023-12-07T06:00:59;101.73;;;53.00;;
13083;SDS011;6608;48.790;9.198;2023-12-07T06:03:26;107.60;;;54.27;;
13083;SDS011;6608;48.790;9.198;2023-12-07T06:05:53;102.53;;;53.43;;
13083;SDS011;6608;48.790;9.198;2023-12-07T06:08:20;100.47;;;52.90;;
13083;SDS011;6608;48.790;9.198;2023-12-07T06:10:48;101.60;;;53.07;;
13083;SDS011;6608;48.790;9.198;2023-12-07T06:13:15;106.10;;;54.60;;
13083;SDS011;6608;48.790;9.198;2023-12-07T06:15:41;106.27;;;54.37;;
13083;SDS011;6608;48.790;9.198;2023-12-07T06:18:08;97.53;;;52.07;;
13083;SDS011;6608;48.790;9.198;2023-12-07T06:20:34;102.03;;;53.10;;
13083;SDS011;6608;48.790;9.198;2023-12-07T06:23:01;98.47;;;52.70;;
13083;SDS011;6608;48.790;9.198;2023-12-07T06:25:28;108.13;;;54.30;;
13083;SDS011;6608;48.790;9.198;2023-12-07T06:27:56;106.63;;;54.17;;
13083;SDS011;6608;48.790;9.198;2023-12-07T06:30:22;104.77;;;53.93;;
13083;SDS011;6608;48.790;9.198;2023-12-07T06:32:49;117.33;;;60.00;;
13083;SDS011;6608;48.790;9.198;2023-12-07T06:35:16;103.87;;;53.47;;
13083;SDS011;6608;48.790;9.198;2023-12-07T06:37:42;101.03;;;52.87;;
13083;SDS011;6608;48.790;9.198;2023-12-07T06:40:09;105.70;;;55.43;;
13083;SDS011;6608;48.790;9.198;2023-12-07T06:42:36;136.07;;;72.43;;
13083;SDS011;6608;48.790;9.198;2023-12-07T06:45:05;103.53;;;54.37;;
13083;SDS011;6608;48.790;9.198;2023-12-07T06:47:35;99.90;;;52.80;;
13083;SDS011;6608;48.790;9.198;2023-12-07T06:50:02;106.33;;;54.07;;
13083;SDS011;6608;48.790;9.198;2023-12-07T06:52:28;98.87;;;52.73;;
13083;SDS011;6608;48.790;9.198;2023-12-07T06:54:55;102.93;;;53.17;;
13083;SDS011;6608;48.790;9.198;2023-12-07T06:57:22;99.87;;;52.80;;
13083;SDS011;6608;48.790;9.198;2023-12-07T06:59:49;101.23;;;54.57;;
13083;SDS011;6608;48.790;9.198;2023-12-07T07:02:17;102.30;;;53.47;;
13083;SDS011;6608;48.790;9.198;2023-12-07T07:04:55;101.50;;;52.97;;
13083;SDS011;6608;48.790;9.198;2023-12-07T07:07:22;99.10;;;52.73;;
13083;SDS011;6608;48.790;9.198;2023-12-07T07:09:48;102.93;;;54.70;;
13083;SDS011;6608;48.790;9.198;2023-12-07T07:12:15;100.57;;;53.10;;
13083;SDS011;6608;48.790;9.198;2023-12-07T07:14:41;97.30;;;52.27;;
13083;SDS011;6608;48.790;9.198;2023-12-07T07:17:08;99.13;;;53.10;;
13083;SDS011;6608;48.790;9.198;2023-12-07T07:19:36;103.73;;;53.57;;
13083;SDS011;6608;48.790;9.198;2023-12-07T07:22:02;104.87;;;54.30;;
13083;SDS011;6608;48.790;9.198;2023-12-07T07:24:29;98.37;;;52.73;;
13083;SDS011;6608;48.790;9.198;2023-12-07T07:26:56;99.93;;;52.77;;
13083;SDS011;6608;48.790;9.198;2023-12-07T07:29:22;104.00;;;53.93;;
13083;SDS011;6608;48.790;9.198;2023-12-07T07:31:49;102.00;;;53.73;;
13083;SDS011;6608;48.790;9.198;2023-12-07T07:34:15;104.93;;;54.70;;
13083;SDS011;6608;48.790;9.198;2023-12-07T07:36:43;104.40;;;54.40;;
13083;SDS011;6608;48.790;9.198;2023-12-07T07:39:10;110.80;;;55.10;;
13083;SDS011;6608;48.790;9.198;2023-12-07T07:41:38;117.10;;;58.37;;
13083;SDS011;6608;48.790;9.198;2023-12-07T07:44:05;111.17;;;61.50;;
13083;SDS011;6608;48.790;9.198;2023-12-07T07:46:31;117.93;;;60.83;;
13083;SDS011;6608;48.790;9.198;2023-12-07T07:48:58;108.73;;;57.27;;
13083;SDS011;6608;48.790;9.198;2023-12-07T07:51:24;103.83;;;54.00;;
13083;SDS011;6608;48.790;9.198;2023-12-07T07:53:52;108.80;;;54.10;;
13083;SDS011;6608;48.790;9.198;2023-12-07T07:56:18;111.50;;;55.53;;
13083;SDS011;6608;48.790;9.198;2023-12-07T07:58:45;113.77;;;56.13;;
13083;SDS011;6608;48.790;9.198;2023-12-07T08:01:11;107.37;;;55.47;;
13083;SDS011;6608;48.790;9.198;2023-12-07T08:03:38;104.57;;;53.73;;
13083;SDS011;6608;48.790;9.198;2023-12-07T08:06:04;105.80;;;54.30;;
13083;SDS011;6608;48.790;9.198;2023-12-07T08:08:33;102.37;;;55.47;;
13083;SDS011;6608;48.790;9.198;2023-12-07T08:11:01;115.97;;;57.77;;
13083;SDS011;6608;48.790;9.198;2023-12-07T08:13:27;106.73;;;55.30;;
13083;SDS011;6608;48.790;9.198;2023-12-07T08:15:54;107.03;;;55.57;;
13083;SDS011;6608;48.790;9.198;2023-12-07T08:18:20;103.97;;;54.07;;
13083;SDS011;6608;48.790;9.198;2023-12-07T08:21:18;107.33;;;55.23;;
13083;SDS011;6608;48.790;9.198;2023-12-07T08:23:34;104.30;;;55.10;;
13083;SDS011;6608;48.790;9.198;2023-12-07T08:26:03;97.90;;;53.40;;
13083;SDS011;6608;48.790;9.198;2023-12-07T08:28:29;103.50;;;55.00;;
13083;SDS011;6608;48.790;9.198;2023-12-07T08:30:56;99.37;;;53.33;;
13083;SDS011;6608;48.790;9.198;2023-12-07T08:33:23;104.77;;;54.00;;
13083;SDS011;6608;48.790;9.198;2023-12-07T08:35:49;122.80;;;61.83;;
13083;SDS011;6608;48.790;9.198;2023-12-07T08:38:19;104.33;;;54.07;;
13083;SDS011;6608;48.790;9.198;2023-12-07T08:40:47;104.70;;;54.67;;
13083;SDS011;6608;48.790;9.198;2023-12-07T08:43:14;106.87;;;55.50;;
13083;SDS011;6608;48.790;9.198;2023-12-07T08:45:41;106.13;;;55.50;;
13083;SDS011;6608;48.790;9.198;2023-12-07T08:48:07;107.87;;;54.47;;
13083;SDS011;6608;48.790;9.198;2023-12-07T08:50:34;105.57;;;55.27;;
13083;SDS011;6608;48.790;9.198;2023-12-07T08:53:00;104.07;;;54.57;;
13083;SDS011;6608;48.790;9.198;2023-12-07T08:55:27;102.47;;;54.47;;
13083;SDS011;6608;48.790;9.198;2023-12-07T08:57:53;106.50;;;55.23;;
13083;SDS011;6608;48.790;9.198;2023-12-07T09:00:21;102.97;;;54.00;;
13083;SDS011;6608;48.790;9.198;2023-12-07T09:02:49;108.73;;;55.50;;
13083;SDS011;6608;48.790;9.198;2023-12-07T09:05:15;114.33;;;56.43;;
13083;SDS011;6608;48.790;9.198;2023-12-07T09:07:42;110.47;;;56.47;;
13083;SDS011;6608;48.790;9.198;2023-12-07T09:10:09;116.53;;;56.53;;
13083;SDS011;6608;48.790;9.198;2023-12-07T09:12:36;121.00;;;57.60;;
13083;SDS011;6608;48.790;9.198;2023-12-07T09:15:03;131.43;;;58.83;;
13083;SDS011;6608;48.790;9.198;2023-12-07T09:17:32;132.07;;;60.23;;
13083;SDS011;6608;48.790;9.198;2023-12-07T09:20:00;127.93;;;59.30;;
13083;SDS011;6608;48.790;9.198;2023-12-07T09:22:26;122.40;;;59.33;;
13083;SDS011;6608;48.790;9.198;2023-12-07T09:24:53;131.77;;;60.20;;
13083;SDS011;6608;48.790;9.198;2023-12-07T09:27:19;141.20;;;63.10;;
13083;SDS011;6608;48.790;9.198;2023-12-07T09:29:46;154.87;;;66.30;;
13083;SDS011;6608;48.790;9.198;2023-12-07T09:32:15;135.50;;;61.60;;
13083;SDS011;6608;48.790;9.198;2023-12-07T09:34:43;135.00;;;61.00;;
13083;SDS011;6608;48.790;9.198;2023-12-07T09:37:13;140.10;;;62.80;;
13083;SDS011;6608;48.790;9.198;2023-12-07T09:39:40;141.17;;;63.30;;
13083;SDS011;6608;48.790;9.198;2023-12-07T09:42:06;138.10;;;61.77;;
13083;SDS011;6608;48.790;9.198;2023-12-07T09:44:33;142.10;;;63.00;;
13083;SDS011;6608;48.790;9.198;2023-12-07T09:46:59;135.63;;;62.17;;
13083;SDS011;6608;48.790;9.198;2023-12-07T09:49:26;143.60;;;64.17;;
13083;SDS011;6608;48.790;9.198;2023-12-07T09:51:56;135.93;;;62.57;;
13083;SDS011;6608;48.790;9.198;2023-12-07T09:54:25;134.63;;;61.97;;
13083;SDS011;6608;48.790;9.198;2023-12-07T09:56:53;141.63;;;63.67;;
13083;SDS011;6608;48.790;9.198;2023-12-07T09:59:20;140.07;;;64.03;;
13083;SDS011;6608;48.790;9.198;2023-12-07T10:01:46;144.47;;;63.87;;
13083;SDS011;6608;48.790;9.198;2023-12-07T10:04:22;154.07;;;66.87;;
13083;SDS011;6608;48.790;9.198;2023-12-07T10:06:51;159.37;;;66.60;;
13083;SDS011;6608;48.790;9.198;2023-12-07T10:09:20;154.90;;;66.60;;
13083;SDS011;6608;48.790;9.198;2023-12-07T10:11:47;142.13;;;62.87;;
13083;SDS011;6608;48.790;9.198;2023-12-07T10:14:14;158.13;;;67.10;;
13083;SDS011;6608;48.790;9.198;2023-12-07T10:16:46;147.10;;;64.13;;
13083;SDS011;6608;48.790;9.198;2023-12-07T10:19:18;158.27;;;67.00;;
13083;SDS011;6608;48.790;9.198;2023-12-07T10:21:46;154.73;;;64.90;;
13083;SDS011;6608;48.790;9.198;2023-12-07T10:24:13;166.90;;;72.00;;
13083;SDS011;6608;48.790;9.198;2023-12-07T10:26:45;154.03;;;65.63;;
13083;SDS011;6608;48.790;9.198;2023-12-07T10:29:12;151.93;;;64.17;;
13083;SDS011;6608;48.790;9.198;2023-12-07T10:31:39;153.53;;;64.80;;
13083;SDS011;6608;48.790;9.198;2023-12-07T10:34:06;154.80;;;65.77;;
13083;SDS011;6608;48.790;9.198;2023-12-07T10:36:33;157.50;;;65.63;;
13083;SDS011;6608;48.790;9.198;2023-12-07T10:39:00;168.47;;;67.77;;
13083;SDS011;6608;48.790;9.198;2023-12-07T10:41:31;153.70;;;65.73;;
13083;SDS011;6608;48.790;9.198;2023-12-07T10:44:01;157.07;;;66.97;;
13083;SDS011;6608;48.790;9.198;2023-12-07T10:46:27;154.83;;;66.10;;
13083;SDS011;6608;48.790;9.198;2023-12-07T10:48:58;150.37;;;63.73;;
13083;SDS011;6608;48.790;9.198;2023-12-07T10:51:30;155.90;;;64.97;;
13083;SDS011;6608;48.790;9.198;2023-12-07T10:53:57;155.23;;;65.00;;
13083;SDS011;6608;48.790;9.198;2023-12-07T10:56:26;150.83;;;63.93;;
13083;SDS011;6608;48.790;9.198;2023-12-07T10:58:55;150.63;;;63.67;;
13083;SDS011;6608;48.790;9.198;2023-12-07T11:01:23;147.07;;;63.67;;
13083;SDS011;6608;48.790;9.198;2023-12-07T11:03:51;154.03;;;66.80;;
13083;SDS011;6608;48.790;9.198;2023-12-07T11:06:19;148.90;;;64.10;;
13083;SDS011;6608;48.790;9.198;2023-12-07T11:08:46;155.40;;;65.83;;
13083;SDS011;6608;48.790;9.198;2023-12-07T11:11:15;149.03;;;63.83;;
13083;SDS011;6608;48.790;9.198;2023-12-07T11:13:45;160.73;;;65.20;;
13083;SDS011;6608;48.790;9.198;2023-12-07T11:16:15;155.93;;;65.10;;
13083;SDS011;6608;48.790;9.198;2023-12-07T11:18:43;145.20;;;62.00;;
13083;SDS011;6608;48.790;9.198;2023-12-07T11:21:09;147.20;;;63.60;;
13083;SDS011;6608;48.790;9.198;2023-12-07T11:23:36;150.47;;;64.20;;
13083;SDS011;6608;48.790;9.198;2023-12-07T11:26:02;151.00;;;64.20;;
13083;SDS011;6608;48.790;9.198;2023-12-07T11:28:35;151.37;;;65.10;;
13083;SDS011;6608;48.790;9.198;2023-12-07T11:31:02;155.63;;;65.87;;
13083;SDS011;6608;48.790;9.198;2023-12-07T11:33:30;151.40;;;64.23;;
13083;SDS011;6608;48.790;9.198;2023-12-07T11:36:07;151.23;;;64.00;;
13083;SDS011;6608;48.790;9.198;2023-12-07T11:38:35;158.70;;;65.63;;
13083;SDS011;6608;48.790;9.198;2023-12-07T11:41:01;153.57;;;65.23;;
13083;SDS011;6608;48.790;9.198;2023-12-07T11:43:42;152.17;;;65.03;;
13083;SDS011;6608;48.790;9.198;2023-12-07T11:46:11;150.33;;;64.97;;
13083;SDS011;6608;48.790;9.198;2023-12-07T11:48:39;163.57;;;70.20;;
13083;SDS011;6608;48.790;9.198;2023-12-07T11:51:07;151.13;;;64.63;;
13083;SDS011;6608;48.790;9.198;2023-12-07T11:53:34;150.07;;;64.33;;
13083;SDS011;6608;48.790;9.198;2023-12-07T11:56:01;149.20;;;64.27;;
13083;SDS011;6608;48.790;9.198;2023-12-07T11:58:28;152.80;;;64.77;;
13083;SDS011;6608;48.790;9.198;2023-12-07T12:00:55;151.17;;;64.20;;
13083;SDS011;6608;48.790;9.198;2023-12-07T12:03:22;146.47;;;63.30;;
13083;SDS011;6608;48.790;9.198;2023-12-07T12:05:48;152.07;;;65.43;;
13083;SDS011;6608;48.790;9.198;2023-12-07T12:08:17;152.73;;;64.63;;
13083;SDS011;6608;48.790;9.198;2023-12-07T12:10:45;154.33;;;65.70;;
13083;SDS011;6608;48.790;9.198;2023-12-07T12:13:11;150.43;;;63.67;;
13083;SDS011;6608;48.790;9.198;2023-12-07T12:15:38;157.27;;;64.97;;
13083;SDS011;6608;48.790;9.198;2023-12-07T12:18:05;157.37;;;66.07;;
13083;SDS011;6608;48.790;9.198;2023-12-07T12:20:32;164.53;;;67.73;;
13083;SDS011;6608;48.790;9.198;2023-12-07T12:22:59;151.07;;;64.27;;
13083;SDS011;6608;48.790;9.198;2023-12-07T12:25:27;150.73;;;63.43;;
13083;SDS011;6608;48.790;9.198;2023-12-07T12:27:55;146.80;;;63.17;;
13083;SDS011;6608;48.790;9.198;2023-12-07T12:30:22;145.90;;;62.50;;
13083;SDS011;6608;48.790;9.198;2023-12-07T12:32:49;142.17;;;61.60;;
13083;SDS011;6608;48.790;9.198;2023-12-07T12:35:15;145.13;;;62.90;;
13083;SDS011;6608;48.790;9.198;2023-12-07T12:37:42;143.23;;;62.00;;
13083;SDS011;6608;48.790;9.198;2023-12-07T12:40:10;145.77;;;63.03;;
13083;SDS011;6608;48.790;9.198;2023-12-07T12:42:38;145.10;;;63.00;;
13083;SDS011;6608;48.790;9.198;2023-12-07T12:45:07;155.47;;;65.20;;
13083;SDS011;6608;48.790;9.198;2023-12-07T12:47:36;173.33;;;75.77;;
13083;SDS011;6608;48.790;9.198;2023-12-07T12:50:02;139.43;;;61.60;;
13083;SDS011;6608;48.790;9.198;2023-12-07T12:52:30;162.20;;;66.47;;
13083;SDS011;6608;48.790;9.198;2023-12-07T12:54:56;146.57;;;63.50;;
13083;SDS011;6608;48.790;9.198;2023-12-07T12:57:23;152.87;;;64.47;;
13083;SDS011;6608;48.790;9.198;2023-12-07T12:59:51;142.33;;;62.13;;
13083;SDS011;6608;48.790;9.198;2023-12-07T13:02:18;146.70;;;63.03;;
13083;SDS011;6608;48.790;9.198;2023-12-07T13:04:45;140.27;;;61.57;;
13083;SDS011;6608;48.790;9.198;2023-12-07T13:07:11;144.33;;;62.13;;
13083;SDS011;6608;48.790;9.198;2023-12-07T13:09:38;148.40;;;62.70;;
13083;SDS011;6608;48.790;9.198;2023-12-07T13:12:05;144.93;;;61.97;;
13083;SDS011;6608;48.790;9.198;2023-12-07T13:14:31;149.50;;;62.43;;
13083;SDS011;6608;48.790;9.198;2023-12-07T13:17:01;148.13;;;63.37;;
13083;SDS011;6608;48.790;9.198;2023-12-07T13:19:29;143.67;;;62.67;;
13083;SDS011;6608;48.790;9.198;2023-12-07T13:21:55;142.97;;;61.70;;
13083;SDS011;6608;48.790;9.198;2023-12-07T13:24:22;129.67;;;57.93;;
13083;SDS011;6608;48.790;9.198;2023-12-07T13:26:48;154.43;;;63.60;;
13083;SDS011;6608;48.790;9.198;2023-12-07T13:29:17;147.87;;;62.50;;
13083;SDS011;6608;48.790;9.198;2023-12-07T13:31:43;136.53;;;60.30;;
13083;SDS011;6608;48.790;9.198;2023-12-07T13:34:13;140.57;;;60.77;;
13083;SDS011;6608;48.790;9.198;2023-12-07T13:36:40;136.33;;;60.07;;
13083;SDS011;6608;48.790;9.198;2023-12-07T13:39:06;139.53;;;61.20;;
13083;SDS011;6608;48.790;9.198;2023-12-07T13:41:33;129.83;;;59.20;;
13083;SDS011;6608;48.790;9.198;2023-12-07T13:44:00;140.47;;;60.70;;
13083;SDS011;6608;48.790;9.198;2023-12-07T13:46:27;145.07;;;61.57;;
13083;SDS011;6608;48.790;9.198;2023-12-07T13:48:53;135.77;;;59.80;;
13083;SDS011;6608;48.790;9.198;2023-12-07T13:51:22;133.37;;;59.07;;
13083;SDS011;6608;48.790;9.198;2023-12-07T13:53:48;133.87;;;59.67;;
13083;SDS011;6608;48.790;9.198;2023-12-07T13:56:20;142.77;;;60.67;;
13083;SDS011;6608;48.790;9.198;2023-12-07T13:58:48;134.23;;;59.67;;
13083;SDS011;6608;48.790;9.198;2023-12-07T14:01:15;134.30;;;59.43;;
13083;SDS011;6608;48.790;9.198;2023-12-07T14:03:41;133.53;;;59.17;;
13083;SDS011;6608;48.790;9.198;2023-12-07T14:06:08;130.67;;;58.73;;
13083;SDS011;6608;48.790;9.198;2023-12-07T14:08:36;133.77;;;58.63;;
13083;SDS011;6608;48.790;9.198;2023-12-07T14:11:03;133.53;;;59.07;;
13083;SDS011;6608;48.790;9.198;2023-12-07T14:13:30;134.50;;;58.90;;
13083;SDS011;6608;48.790;9.198;2023-12-07T14:16:05;129.63;;;57.43;;
13083;SDS011;6608;48.790;9.198;2023-12-07T14:18:33;139.17;;;59.07;;
13083;SDS011;6608;48.790;9.198;2023-12-07T14:21:00;132.40;;;57.37;;
13083;SDS011;6608;48.790;9.198;2023-12-07T14:23:27;132.53;;;57.20;;